Time;durP1;ratioP1;P1;durP2;ratioP2;P2;SDS_P1;SDS_P2;PMS_P1;PMS_P2;Temp;Humidity;BMP_temperature;BMP_pressure;BME280_temperature;BME280_humidity;BME280_pressure;Samples;Min_cycle;Max_cycle;Signal;HPM_P1;HPM_P2
2022/03/28 00:00:48;;;;;;;14.23;5.90;;;;;;;;;;5041770;28;20059;-74
2022/03/28 00:03:14;;;;;;;13.63;5.78;;;;;;;;;;5051756;28;20045;-73
2022/03/28 00:05:40;;;;;;;16.05;6.28;;;;;;;;;;5055619;28;20389;-73
2022/03/28 00:08:06;;;;;;;13.00;6.22;;;;;;;;;;5052282;28;20067;-74
2022/03/28 00:10:33;;;;;;;10.52;5.07;;;;;;;;;;5048499;28;20025;-74
2022/03/28 00:12:59;;;;;;;14.25;6.38;;;;;;;;;;5050669;28;20036;-74
2022/03/28 00:15:25;;;;;;;11.07;6.00;;;;;;;;;;5040713;28;20053;-74
2022/03/28 00:17:51;;;;;;;10.30;4.75;;;;;;;;;;5051491;28;20039;-73
2022/03/28 00:20:18;;;;;;;10.65;4.90;;;;;;;;;;5043148;28;20037;-73
2022/03/28 00:22:44;;;;;;;13.88;5.45;;;;;;;;;;5069465;28;20468;-73
2022/03/28 00:25:11;;;;;;;12.38;5.45;;;;;;;;;;5044350;28;20029;-74
2022/03/28 00:27:38;;;;;;;9.55;5.10;;;;;;;;;;5048277;28;20033;-73
2022/03/28 00:30:05;;;;;;;10.60;5.63;;;;;;;;;;5048572;28;20037;-74
2022/03/28 00:32:32;;;;;;;10.82;5.57;;;;;;;;;;5045685;28;20040;-73
2022/03/28 00:34:58;;;;;;;10.38;5.47;;;;;;;;;;5051216;28;20610;-74
2022/03/28 00:37:24;;;;;;;11.60;5.63;;;;;;;;;;5050606;28;20024;-73
2022/03/28 00:39:50;;;;;;;11.95;5.68;;;;;;;;;;5051408;28;20070;-74
2022/03/28 00:42:16;;;;;;;11.10;5.10;;;;;;;;;;5046712;28;20033;-73
2022/03/28 00:44:42;;;;;;;10.23;5.10;;;;;;;;;;5051884;28;20032;-73
2022/03/28 00:47:08;;;;;;;9.32;5.43;;;;;;;;;;5057527;28;20025;-73
2022/03/28 00:49:34;;;;;;;11.23;4.88;;;;;;;;;;5051171;28;20036;-74
2022/03/28 00:52:01;;;;;;;11.32;5.32;;;;;;;;;;5069013;28;20033;-74
2022/03/28 00:54:27;;;;;;;10.93;4.75;;;;;;;;;;5034110;28;20122;-73
2022/03/28 00:56:53;;;;;;;9.98;5.88;;;;;;;;;;5030893;28;20509;-73
2022/03/28 00:59:19;;;;;;;11.40;5.15;;;;;;;;;;5038259;28;20381;-73
2022/03/28 01:01:46;;;;;;;8.98;4.70;;;;;;;;;;5037224;28;20488;-73
2022/03/28 01:04:12;;;;;;;7.80;3.95;;;;;;;;;;5039311;28;20045;-74
2022/03/28 01:06:38;;;;;;;12.18;5.45;;;;;;;;;;5030414;28;20060;-74
2022/03/28 01:09:05;;;;;;;19.58;7.18;;;;;;;;;;5037047;28;20049;-74
2022/03/28 01:11:34;;;;;;;14.35;5.35;;;;;;;;;;5030666;28;20037;-74
2022/03/28 01:14:00;;;;;;;9.15;4.93;;;;;;;;;;5046242;28;20043;-73
2022/03/28 01:19:18;;;;;;;8.65;4.20;;;;;;;;;;5039038;28;20086;-74
2022/03/28 01:21:44;;;;;;;10.05;4.72;;;;;;;;;;5050623;28;20025;-73
2022/03/28 01:24:11;;;;;;;8.65;4.20;;;;;;;;;;5043798;28;20043;-74
2022/03/28 01:26:37;;;;;;;12.77;4.85;;;;;;;;;;5030606;28;20834;-74
2022/03/28 01:29:05;;;;;;;9.65;5.07;;;;;;;;;;5033499;28;20136;-74
2022/03/28 01:31:32;;;;;;;9.48;4.93;;;;;;;;;;5050544;28;20049;-73
2022/03/28 01:33:58;;;;;;;8.75;4.53;;;;;;;;;;5046221;28;20078;-73
2022/03/28 01:36:24;;;;;;;12.05;4.82;;;;;;;;;;5031510;28;20036;-74
2022/03/28 01:38:50;;;;;;;7.82;4.50;;;;;;;;;;5030207;28;20061;-74
2022/03/28 01:41:16;;;;;;;7.53;3.95;;;;;;;;;;5030712;28;20068;-74
2022/03/28 01:43:42;;;;;;;9.40;4.65;;;;;;;;;;5031539;28;20618;-73
2022/03/28 01:46:08;;;;;;;10.38;4.45;;;;;;;;;;5049841;28;20040;-73
2022/03/28 01:48:34;;;;;;;8.65;4.85;;;;;;;;;;5049987;28;20553;-74
2022/03/28 01:51:00;;;;;;;11.98;4.82;;;;;;;;;;5057848;28;20039;-73
2022/03/28 01:53:26;;;;;;;10.55;6.47;;;;;;;;;;5069878;28;20040;-73
2022/03/28 01:55:52;;;;;;;8.93;5.55;;;;;;;;;;5050475;28;20033;-74
2022/03/28 01:58:18;;;;;;;13.05;6.82;;;;;;;;;;5044311;28;20117;-74
2022/03/28 02:00:45;;;;;;;12.43;5.05;;;;;;;;;;5045503;28;20035;-74
2022/03/28 02:03:11;;;;;;;11.18;5.40;;;;;;;;;;5049182;28;20053;-74
2022/03/28 02:05:37;;;;;;;7.10;4.18;;;;;;;;;;5049308;28;20052;-73
2022/03/28 02:08:03;;;;;;;9.80;4.60;;;;;;;;;;5042808;28;20112;-74
2022/03/28 02:10:30;;;;;;;8.98;4.25;;;;;;;;;;5039803;28;20049;-73
2022/03/28 02:12:56;;;;;;;8.88;4.32;;;;;;;;;;5036666;28;20045;-73
2022/03/28 02:15:23;;;;;;;12.35;5.10;;;;;;;;;;5043793;28;20112;-74
2022/03/28 02:17:49;;;;;;;9.10;4.90;;;;;;;;;;5033274;28;20108;-74
2022/03/28 02:20:15;;;;;;;11.60;4.40;;;;;;;;;;5028806;28;20037;-73
2022/03/28 02:22:42;;;;;;;10.43;4.68;;;;;;;;;;5029844;28;20045;-73
2022/03/28 02:25:09;;;;;;;9.80;4.65;;;;;;;;;;5035857;28;20033;-74
2022/03/28 02:27:36;;;;;;;8.35;5.15;;;;;;;;;;5048917;28;20033;-74
2022/03/28 02:30:02;;;;;;;9.25;5.00;;;;;;;;;;5044150;28;20025;-74
2022/03/28 02:32:28;;;;;;;12.35;5.05;;;;;;;;;;5044911;28;20032;-73
2022/03/28 02:34:54;;;;;;;10.70;4.75;;;;;;;;;;5030375;28;20635;-73
2022/03/28 02:37:20;;;;;;;11.93;5.00;;;;;;;;;;5041674;28;20139;-74
2022/03/28 02:39:46;;;;;;;10.45;5.43;;;;;;;;;;5049730;28;20036;-74
2022/03/28 02:42:14;;;;;;;12.32;5.13;;;;;;;;;;5048088;28;20037;-74
2022/03/28 02:44:40;;;;;;;12.27;5.53;;;;;;;;;;5044893;28;20127;-73
2022/03/28 02:47:06;;;;;;;15.38;5.93;;;;;;;;;;5039734;28;20094;-74
2022/03/28 02:49:32;;;;;;;12.30;5.85;;;;;;;;;;5030321;28;20174;-73
2022/03/28 02:51:58;;;;;;;12.60;5.35;;;;;;;;;;5034919;28;20472;-74
2022/03/28 02:54:24;;;;;;;9.50;4.55;;;;;;;;;;5047331;28;20025;-73
2022/03/28 02:56:50;;;;;;;10.57;4.57;;;;;;;;;;5047896;28;20043;-74
2022/03/28 02:59:16;;;;;;;10.65;5.57;;;;;;;;;;5048290;28;20399;-74
2022/03/28 03:01:44;;;;;;;9.20;5.45;;;;;;;;;;5043474;28;20065;-74
2022/03/28 03:04:10;;;;;;;11.65;4.97;;;;;;;;;;5028499;28;20456;-74
2022/03/28 03:06:36;;;;;;;12.65;5.28;;;;;;;;;;5031155;28;20092;-74
2022/03/28 03:09:02;;;;;;;12.10;4.78;;;;;;;;;;5040584;28;20103;-74
2022/03/28 03:11:28;;;;;;;9.60;4.43;;;;;;;;;;5043761;28;20051;-73
2022/03/28 03:13:56;;;;;;;12.25;4.85;;;;;;;;;;5049597;28;20742;-74
2022/03/28 03:16:22;;;;;;;8.20;4.60;;;;;;;;;;5055118;28;20029;-73
2022/03/28 03:18:48;;;;;;;11.90;5.40;;;;;;;;;;5048008;28;20109;-74
2022/03/28 03:21:14;;;;;;;11.00;4.97;;;;;;;;;;5048898;28;20115;-73
2022/03/28 03:23:40;;;;;;;11.65;5.72;;;;;;;;;;5040471;28;20467;-73
2022/03/28 03:26:07;;;;;;;10.35;5.07;;;;;;;;;;5034338;28;20033;-73
2022/03/28 03:28:33;;;;;;;13.55;4.85;;;;;;;;;;5048194;28;20041;-74
2022/03/28 03:30:59;;;;;;;9.75;4.75;;;;;;;;;;5052330;28;20036;-73
2022/03/28 03:33:25;;;;;;;10.50;5.15;;;;;;;;;;5060600;28;20747;-73
2022/03/28 03:35:51;;;;;;;12.05;5.32;;;;;;;;;;5034196;28;20037;-74
2022/03/28 03:38:17;;;;;;;12.65;5.82;;;;;;;;;;5052484;28;20037;-73
2022/03/28 03:40:43;;;;;;;11.98;5.20;;;;;;;;;;5040545;28;20029;-73
2022/03/28 03:43:09;;;;;;;12.63;4.82;;;;;;;;;;5050131;28;20460;-74
2022/03/28 03:45:35;;;;;;;11.35;5.82;;;;;;;;;;5041069;28;20108;-74
2022/03/28 03:48:01;;;;;;;14.77;5.63;;;;;;;;;;5060245;28;20129;-73
2022/03/28 03:50:27;;;;;;;11.10;5.20;;;;;;;;;;5052207;28;20035;-73
2022/03/28 03:52:55;;;;;;;11.95;5.88;;;;;;;;;;5051706;28;20106;-74
2022/03/28 03:55:21;;;;;;;9.30;5.10;;;;;;;;;;5052332;28;20797;-73
2022/03/28 03:57:47;;;;;;;10.63;5.22;;;;;;;;;;5061254;28;20036;-74
2022/03/28 04:00:13;;;;;;;15.05;5.05;;;;;;;;;;5047128;28;20037;-73
2022/03/28 04:02:39;;;;;;;10.07;4.70;;;;;;;;;;5031595;28;20531;-73
2022/03/28 04:05:05;;;;;;;11.52;5.40;;;;;;;;;;5046628;28;20033;-73
2022/03/28 04:07:32;;;;;;;15.45;5.13;;;;;;;;;;5051774;28;20040;-74
2022/03/28 04:10:01;;;;;;;14.27;6.05;;;;;;;;;;5051285;28;20048;-74
2022/03/28 04:12:27;;;;;;;14.55;6.45;;;;;;;;;;5051778;28;20033;-73
2022/03/28 04:14:57;;;;;;;13.20;6.25;;;;;;;;;;5058710;28;20871;-74
2022/03/28 04:17:23;;;;;;;10.48;5.80;;;;;;;;;;5071957;28;20521;-73
2022/03/28 04:19:49;;;;;;;17.65;6.20;;;;;;;;;;5056790;28;20108;-74
2022/03/28 04:22:15;;;;;;;14.52;5.55;;;;;;;;;;5031980;28;20121;-73
2022/03/28 04:24:41;;;;;;;13.18;5.18;;;;;;;;;;5043476;28;20090;-73
2022/03/28 04:27:07;;;;;;;14.35;5.65;;;;;;;;;;5045762;28;20582;-73
2022/03/28 04:29:34;;;;;;;11.73;5.40;;;;;;;;;;5031106;28;20057;-73
2022/03/28 04:32:00;;;;;;;15.68;6.15;;;;;;;;;;5031675;28;20511;-73
2022/03/28 04:34:26;;;;;;;12.32;6.15;;;;;;;;;;5043963;28;20087;-73
2022/03/28 04:36:52;;;;;;;12.02;6.82;;;;;;;;;;5031661;28;20480;-73
2022/03/28 04:39:18;;;;;;;11.95;6.72;;;;;;;;;;5040345;28;20036;-73
2022/03/28 04:41:44;;;;;;;12.90;5.13;;;;;;;;;;5049954;28;20419;-73
2022/03/28 04:44:10;;;;;;;11.00;5.55;;;;;;;;;;5045896;28;20048;-73
2022/03/28 04:46:36;;;;;;;11.80;5.75;;;;;;;;;;5032922;28;20033;-73
2022/03/28 04:49:02;;;;;;;14.65;6.40;;;;;;;;;;5038263;28;20074;-73
2022/03/28 04:51:28;;;;;;;16.00;6.75;;;;;;;;;;5050397;28;20116;-74
2022/03/28 04:53:55;;;;;;;13.98;6.20;;;;;;;;;;5047105;28;20135;-74
2022/03/28 04:56:21;;;;;;;13.38;5.97;;;;;;;;;;5045265;28;20494;-73
2022/03/28 04:58:47;;;;;;;14.70;5.93;;;;;;;;;;5038831;28;20065;-74
2022/03/28 05:01:12;;;;;;;14.82;6.43;;;;;;;;;;5043114;28;20033;-73
2022/03/28 05:03:38;;;;;;;13.20;5.85;;;;;;;;;;5030412;28;20054;-73
2022/03/28 05:06:05;;;;;;;15.77;7.05;;;;;;;;;;5051962;28;20028;-73
2022/03/28 05:08:31;;;;;;;15.65;7.35;;;;;;;;;;5051900;28;20387;-73
2022/03/28 05:10:57;;;;;;;23.73;9.23;;;;;;;;;;5049800;28;20490;-74
2022/03/28 05:13:25;;;;;;;23.35;8.00;;;;;;;;;;5036902;28;20124;-74
2022/03/28 05:15:51;;;;;;;17.85;8.15;;;;;;;;;;5045158;28;20099;-74
2022/03/28 05:18:18;;;;;;;18.67;7.38;;;;;;;;;;5045176;28;20045;-74
2022/03/28 05:20:44;;;;;;;12.90;6.50;;;;;;;;;;5056903;28;20432;-73
2022/03/28 05:23:10;;;;;;;17.23;7.25;;;;;;;;;;5045752;28;20369;-74
2022/03/28 05:25:36;;;;;;;17.88;7.50;;;;;;;;;;5046324;28;20032;-73
2022/03/28 05:28:02;;;;;;;17.77;8.27;;;;;;;;;;5050874;28;20112;-74
2022/03/28 05:30:28;;;;;;;18.73;7.80;;;;;;;;;;5050370;28;20040;-74
2022/03/28 05:32:54;;;;;;;19.33;8.20;;;;;;;;;;5047236;28;20116;-73
2022/03/28 05:35:20;;;;;;;16.25;7.88;;;;;;;;;;5030333;28;20155;-74
2022/03/28 05:37:46;;;;;;;24.35;8.25;;;;;;;;;;5046385;28;20040;-73
2022/03/28 05:40:13;;;;;;;26.35;8.38;;;;;;;;;;5050069;28;20029;-73
2022/03/28 05:42:39;;;;;;;25.05;8.38;;;;;;;;;;5049596;28;20036;-73
2022/03/28 05:45:05;;;;;;;30.30;10.07;;;;;;;;;;5049657;28;20021;-73
2022/03/28 05:47:31;;;;;;;23.70;9.27;;;;;;;;;;5056184;28;20047;-73
2022/03/28 05:49:57;;;;;;;23.45;8.25;;;;;;;;;;5037490;28;20029;-74
2022/03/28 05:52:24;;;;;;;19.35;8.60;;;;;;;;;;5034975;28;20037;-74
2022/03/28 05:54:50;;;;;;;27.25;8.95;;;;;;;;;;5029608;28;20479;-73
2022/03/28 05:57:16;;;;;;;20.42;7.78;;;;;;;;;;5040761;28;20796;-73
2022/03/28 05:59:42;;;;;;;22.40;9.20;;;;;;;;;;5057503;28;20471;-73
2022/03/28 06:02:08;;;;;;;23.13;9.15;;;;;;;;;;5049549;28;20041;-74
2022/03/28 06:04:34;;;;;;;28.10;9.07;;;;;;;;;;5048661;28;20056;-73
2022/03/28 06:07:00;;;;;;;20.33;8.10;;;;;;;;;;5038201;28;20029;-73
2022/03/28 06:09:26;;;;;;;27.30;8.85;;;;;;;;;;5030665;28;20035;-73
2022/03/28 06:11:52;;;;;;;22.25;8.40;;;;;;;;;;5040783;28;20029;-73
2022/03/28 06:14:18;;;;;;;20.38;7.80;;;;;;;;;;5034256;28;20030;-73
2022/03/28 06:16:44;;;;;;;38.22;10.50;;;;;;;;;;5042996;28;20032;-73
2022/03/28 06:19:10;;;;;;;38.00;9.20;;;;;;;;;;5054223;28;20032;-73
2022/03/28 06:21:36;;;;;;;44.63;9.82;;;;;;;;;;5040585;28;20055;-73
2022/03/28 06:24:03;;;;;;;38.90;9.77;;;;;;;;;;5043409;28;20028;-73
2022/03/28 06:26:29;;;;;;;43.08;9.40;;;;;;;;;;5041306;28;20087;-73
2022/03/28 06:28:55;;;;;;;32.85;9.07;;;;;;;;;;5039932;28;20028;-73
2022/03/28 06:31:21;;;;;;;24.75;8.38;;;;;;;;;;5037677;28;20028;-73
2022/03/28 06:33:48;;;;;;;28.17;10.57;;;;;;;;;;5031107;28;20768;-73
2022/03/28 06:36:14;;;;;;;40.70;11.80;;;;;;;;;;5039580;28;20491;-73
2022/03/28 06:38:40;;;;;;;32.53;11.68;;;;;;;;;;5040952;28;20098;-73
2022/03/28 06:41:06;;;;;;;28.02;10.43;;;;;;;;;;5045538;28;20139;-73
2022/03/28 06:43:33;;;;;;;31.33;9.38;;;;;;;;;;5045820;28;20128;-73
2022/03/28 06:45:59;;;;;;;19.48;8.25;;;;;;;;;;5046967;28;20111;-74
2022/03/28 06:48:25;;;;;;;26.30;8.15;;;;;;;;;;5048185;28;20029;-73
2022/03/28 06:50:51;;;;;;;26.52;7.72;;;;;;;;;;5043166;28;20021;-74
2022/03/28 06:53:17;;;;;;;20.15;7.53;;;;;;;;;;5038301;28;20041;-73
2022/03/28 06:55:43;;;;;;;19.48;7.88;;;;;;;;;;5047157;28;20032;-73
2022/03/28 06:58:09;;;;;;;20.08;8.60;;;;;;;;;;5044856;28;20032;-72
2022/03/28 07:00:35;;;;;;;17.38;7.97;;;;;;;;;;5043487;28;20025;-72
2022/03/28 07:03:01;;;;;;;15.57;6.78;;;;;;;;;;5040477;28;20135;-72
2022/03/28 07:05:28;;;;;;;27.42;8.95;;;;;;;;;;5047492;28;20129;-73
2022/03/28 07:07:56;;;;;;;20.63;8.98;;;;;;;;;;5041587;28;20071;-73
2022/03/28 07:10:22;;;;;;;23.30;8.15;;;;;;;;;;5047584;28;20017;-72
2022/03/28 07:12:51;;;;;;;17.75;9.07;;;;;;;;;;5051300;28;20152;-72
2022/03/28 07:15:17;;;;;;;17.85;9.40;;;;;;;;;;5048173;28;20040;-72
2022/03/28 07:17:51;;;;;;;18.33;8.63;;;;;;;;;;5052592;28;20064;-73
2022/03/28 07:20:18;;;;;;;13.85;6.90;;;;;;;;;;5050802;28;20581;-73
2022/03/28 07:22:44;;;;;;;14.68;6.68;;;;;;;;;;5078030;22;20048;-73
2022/03/28 07:25:10;;;;;;;14.02;6.32;;;;;;;;;;5091400;28;20036;-73
2022/03/28 07:27:37;;;;;;;18.13;6.78;;;;;;;;;;5089723;28;20356;-73
2022/03/28 07:30:04;;;;;;;16.40;6.47;;;;;;;;;;5092196;28;20050;-73
2022/03/28 07:32:30;;;;;;;15.13;7.07;;;;;;;;;;5090457;28;20039;-73
2022/03/28 07:34:56;;;;;;;11.43;6.63;;;;;;;;;;5092576;28;20033;-73
2022/03/28 07:37:22;;;;;;;14.73;6.07;;;;;;;;;;5091554;28;20020;-73
2022/03/28 07:39:48;;;;;;;15.10;6.47;;;;;;;;;;5092427;28;20402;-73
2022/03/28 07:42:14;;;;;;;16.33;7.35;;;;;;;;;;5091242;28;20039;-73
2022/03/28 07:44:42;;;;;;;17.63;7.35;;;;;;;;;;5091947;28;20024;-73
2022/03/28 07:47:08;;;;;;;14.98;5.85;;;;;;;;;;5091113;28;20419;-73
2022/03/28 07:49:35;;;;;;;14.93;7.20;;;;;;;;;;5091246;28;20387;-73
2022/03/28 07:52:02;;;;;;;12.10;6.95;;;;;;;;;;5091169;28;20134;-73
2022/03/28 07:54:29;;;;;;;15.45;8.10;;;;;;;;;;5081431;28;20037;-73
2022/03/28 07:56:55;;;;;;;14.50;6.57;;;;;;;;;;5088621;28;20027;-73
2022/03/28 07:59:23;;;;;;;29.95;8.48;;;;;;;;;;5089946;28;20663;-73
2022/03/28 08:01:51;;;;;;;15.32;7.20;;;;;;;;;;5086436;28;20020;-73
2022/03/28 08:04:17;;;;;;;17.25;6.75;;;;;;;;;;5087805;28;20036;-73
2022/03/28 08:06:43;;;;;;;15.50;5.80;;;;;;;;;;5082940;28;20024;-73
2022/03/28 08:09:09;;;;;;;17.88;6.53;;;;;;;;;;5081806;28;20043;-73
2022/03/28 08:11:35;;;;;;;16.48;6.20;;;;;;;;;;5089747;28;20058;-73
2022/03/28 08:14:02;;;;;;;25.77;6.78;;;;;;;;;;5087811;28;20111;-73
2022/03/28 08:16:28;;;;;;;13.50;6.32;;;;;;;;;;5075814;28;20035;-73
2022/03/28 08:18:54;;;;;;;16.75;5.80;;;;;;;;;;5089093;28;20044;-73
2022/03/28 08:21:21;;;;;;;13.77;5.72;;;;;;;;;;5087135;28;20032;-73
2022/03/28 08:23:47;;;;;;;14.35;6.32;;;;;;;;;;5082762;28;20070;-73
2022/03/28 08:26:12;;;;;;;14.43;6.00;;;;;;;;;;5087611;28;20024;-73
2022/03/28 08:28:39;;;;;;;16.40;6.68;;;;;;;;;;5088579;28;20039;-73
2022/03/28 08:31:05;;;;;;;16.63;5.82;;;;;;;;;;5087525;28;20592;-73
2022/03/28 08:33:31;;;;;;;12.93;6.10;;;;;;;;;;5083622;28;20556;-73
2022/03/28 08:35:57;;;;;;;19.27;6.80;;;;;;;;;;5085944;28;20052;-73
2022/03/28 08:38:23;;;;;;;16.42;6.40;;;;;;;;;;5087232;28;20039;-73
2022/03/28 08:40:50;;;;;;;20.85;6.78;;;;;;;;;;5085590;28;20028;-73
2022/03/28 08:43:17;;;;;;;12.77;6.07;;;;;;;;;;5088403;28;20039;-74
2022/03/28 08:45:43;;;;;;;17.63;6.20;;;;;;;;;;5089582;28;20024;-73
2022/03/28 08:48:10;;;;;;;12.57;6.18;;;;;;;;;;5089682;28;20399;-73
2022/03/28 08:50:40;;;;;;;11.48;6.40;;;;;;;;;;5085986;28;20031;-73
2022/03/28 08:53:06;;;;;;;12.35;5.93;;;;;;;;;;5082884;28;20040;-73
2022/03/28 08:55:33;;;;;;;12.10;6.00;;;;;;;;;;5082034;28;20032;-73
2022/03/28 08:57:59;;;;;;;11.88;6.00;;;;;;;;;;5086689;28;20397;-73
2022/03/28 09:00:25;;;;;;;9.07;5.32;;;;;;;;;;5100326;28;20542;-73
2022/03/28 09:02:55;;;;;;;12.75;6.13;;;;;;;;;;5087922;28;20043;-73
2022/03/28 09:05:29;;;;;;;11.52;5.80;;;;;;;;;;5088613;28;20024;-73
2022/03/28 09:07:58;;;;;;;15.75;6.85;;;;;;;;;;5088796;28;20032;-73
2022/03/28 09:10:27;;;;;;;15.60;6.70;;;;;;;;;;5076817;28;20032;-73
2022/03/28 09:12:57;;;;;;;16.40;6.57;;;;;;;;;;5081860;28;20036;-73
2022/03/28 09:15:23;;;;;;;15.25;6.07;;;;;;;;;;5084595;28;20063;-73
2022/03/28 09:17:56;;;;;;;12.48;6.88;;;;;;;;;;5088456;28;20781;-73
2022/03/28 09:20:22;;;;;;;16.00;7.20;;;;;;;;;;5085371;28;20066;-73
2022/03/28 09:22:49;;;;;;;18.15;5.57;;;;;;;;;;5088455;28;20064;-73
2022/03/28 09:25:17;;;;;;;18.15;7.05;;;;;;;;;;5088627;28;20444;-73
2022/03/28 09:27:44;;;;;;;10.02;6.00;;;;;;;;;;5087283;28;20039;-74
2022/03/28 09:30:18;;;;;;;15.25;6.32;;;;;;;;;;5087182;28;20116;-73
2022/03/28 09:32:46;;;;;;;19.30;7.00;;;;;;;;;;5086424;28;20115;-73
2022/03/28 09:35:12;;;;;;;15.50;7.38;;;;;;;;;;5083946;28;20024;-74
2022/03/28 09:37:52;;;;;;;13.13;6.88;;;;;;;;;;5082603;28;20048;-73
2022/03/28 09:40:22;;;;;;;15.65;6.82;;;;;;;;;;5082073;28;20020;-73
2022/03/28 09:42:49;;;;;;;12.88;6.70;;;;;;;;;;5085811;28;20541;-73
2022/03/28 09:45:22;;;;;;;15.50;6.72;;;;;;;;;;5082097;28;20074;-73
2022/03/28 09:48:21;;;;;;;11.75;6.72;;;;;;;;;;5082207;28;20107;-74
2022/03/28 09:51:06;;;;;;;16.63;6.35;;;;;;;;;;5054309;28;20044;-73
2022/03/28 09:53:41;;;;;;;14.93;6.75;;;;;;;;;;5082737;28;20044;-74
2022/03/28 09:56:08;;;;;;;32.30;7.60;;;;;;;;;;5085143;28;20024;-73
2022/03/28 09:58:42;;;;;;;19.70;6.57;;;;;;;;;;5082966;28;20577;-72
2022/03/28 10:01:13;;;;;;;12.02;6.40;;;;;;;;;;5082217;28;20028;-73
2022/03/28 10:03:39;;;;;;;19.20;7.93;;;;;;;;;;5075072;28;20063;-73
2022/03/28 10:06:06;;;;;;;16.75;6.30;;;;;;;;;;5077055;28;20020;-71
2022/03/28 10:08:32;;;;;;;17.77;6.78;;;;;;;;;;5082563;28;20027;-72
2022/03/28 10:10:59;;;;;;;12.02;6.40;;;;;;;;;;5083373;28;20020;-72
2022/03/28 10:13:25;;;;;;;13.30;7.15;;;;;;;;;;5083170;28;20111;-72
2022/03/28 10:15:51;;;;;;;18.02;6.45;;;;;;;;;;5085425;28;20032;-72
2022/03/28 10:18:18;;;;;;;17.77;6.63;;;;;;;;;;5081894;28;20109;-72
2022/03/28 10:20:46;;;;;;;12.68;6.65;;;;;;;;;;5081110;28;20531;-72
2022/03/28 10:23:15;;;;;;;15.80;7.28;;;;;;;;;;5075928;28;20055;-72
2022/03/28 10:25:41;;;;;;;15.20;6.82;;;;;;;;;;5076801;28;20516;-72
2022/03/28 10:28:08;;;;;;;13.77;6.30;;;;;;;;;;5082078;28;20070;-72
2022/03/28 10:30:35;;;;;;;11.52;6.57;;;;;;;;;;5085548;28;20030;-72
2022/03/28 10:33:11;;;;;;;18.27;7.18;;;;;;;;;;5079764;28;20032;-72
2022/03/28 10:35:38;;;;;;;16.95;7.72;;;;;;;;;;5080155;28;20038;-73
2022/03/28 10:38:20;;;;;;;21.42;7.38;;;;;;;;;;5078785;28;20044;-73
2022/03/28 10:41:12;;;;;;;14.43;7.32;;;;;;;;;;5083674;28;20028;-74
2022/03/28 10:43:39;;;;;;;19.08;6.20;;;;;;;;;;5075879;28;20063;-74
2022/03/28 10:46:09;;;;;;;11.90;6.63;;;;;;;;;;5081705;28;20020;-74
2022/03/28 10:48:47;;;;;;;14.63;8.77;;;;;;;;;;5083394;28;20058;-74
2022/03/28 10:51:13;;;;;;;15.52;8.57;;;;;;;;;;5080247;28;20021;-74
2022/03/28 10:53:43;;;;;;;13.77;7.45;;;;;;;;;;5083641;28;20154;-73
2022/03/28 10:56:13;;;;;;;14.48;9.35;;;;;;;;;;5082448;28;20032;-74
2022/03/28 10:58:55;;;;;;;13.32;8.70;;;;;;;;;;5081404;28;20036;-73
2022/03/28 11:01:21;;;;;;;;;;;;;;;;;;5082312;28;20028;-73
2022/03/28 11:03:53;;;;;;;17.20;9.68;;;;;;;;;;5083250;28;19927;-73
2022/03/28 11:06:20;;;;;;;15.50;9.50;;;;;;;;;;5083489;28;20036;-73
2022/03/28 11:09:00;;;;;;;15.13;8.35;;;;;;;;;;5083219;28;20031;-74
2022/03/28 11:11:27;;;;;;;19.05;8.73;;;;;;;;;;5084905;28;20028;-71
2022/03/28 11:14:12;;;;;;;14.82;8.57;;;;;;;;;;5085567;28;20036;-71
2022/03/28 11:16:52;;;;;;;13.70;8.88;;;;;;;;;;5079702;28;20040;-71
2022/03/28 11:19:25;;;;;;;13.18;8.02;;;;;;;;;;5079394;28;20036;-71
2022/03/28 11:21:58;;;;;;;13.27;8.48;;;;;;;;;;5082230;28;20027;-71
2022/03/28 11:24:42;;;;;;;16.65;8.07;;;;;;;;;;5080519;28;20571;-72
2022/03/28 11:27:09;;;;;;;15.48;8.15;;;;;;;;;;5078822;28;20028;-71
2022/03/28 11:29:35;;;;;;;17.75;8.95;;;;;;;;;;5082164;28;20028;-72
2022/03/28 11:32:08;;;;;;;14.45;8.73;;;;;;;;;;5076812;28;20097;-71
2022/03/28 11:34:34;;;;;;;18.17;8.30;;;;;;;;;;5082276;28;20395;-71
2022/03/28 11:37:01;;;;;;;15.38;9.23;;;;;;;;;;5082462;28;20028;-71
2022/03/28 11:39:27;;;;;;;15.98;7.97;;;;;;;;;;5075910;28;20119;-71
2022/03/28 11:41:54;;;;;;;13.88;8.75;;;;;;;;;;5080653;28;20044;-71
2022/03/28 11:44:21;;;;;;;15.18;8.57;;;;;;;;;;5084990;28;20028;-72
2022/03/28 11:47:00;;;;;;;15.45;8.80;;;;;;;;;;5082010;28;20028;-71
2022/03/28 11:49:27;;;;;;;13.57;9.27;;;;;;;;;;5082324;28;20059;-71
2022/03/28 11:51:53;;;;;;;14.27;8.38;;;;;;;;;;5082948;28;20038;-71
2022/03/28 11:54:22;;;;;;;13.57;8.65;;;;;;;;;;5080785;28;20051;-72
2022/03/28 11:59:45;;;;;;;16.33;8.25;;;;;;;;;;5034538;28;20045;-71
2022/03/28 12:02:11;;;;;;;18.30;9.27;;;;;;;;;;5083823;28;20100;-72
2022/03/28 12:04:44;;;;;;;12.25;8.50;;;;;;;;;;5087949;28;20082;-72
2022/03/28 12:07:10;;;;;;;16.95;8.20;;;;;;;;;;5080290;28;20032;-72
2022/03/28 12:09:45;;;;;;;22.80;8.15;;;;;;;;;;5088302;28;20051;-72
2022/03/28 12:12:11;;;;;;;14.52;8.93;;;;;;;;;;5086787;28;20043;-72
2022/03/28 12:14:38;;;;;;;12.90;8.48;;;;;;;;;;5085442;28;20851;-72
2022/03/28 12:17:06;;;;;;;14.20;8.90;;;;;;;;;;5087287;28;20020;-72
2022/03/28 12:19:32;;;;;;;15.75;9.18;;;;;;;;;;5079863;28;20056;-72
2022/03/28 12:21:59;;;;;;;15.38;8.85;;;;;;;;;;5083570;28;20108;-72
2022/03/28 12:24:25;;;;;;;14.80;9.52;;;;;;;;;;5089001;28;20097;-72
2022/03/28 12:26:54;;;;;;;15.18;8.25;;;;;;;;;;5087463;28;20058;-72
2022/03/28 12:29:20;;;;;;;16.85;9.60;;;;;;;;;;5082884;28;20032;-72
2022/03/28 12:31:48;;;;;;;13.75;9.05;;;;;;;;;;5087162;28;20595;-72
2022/03/28 12:34:14;;;;;;;15.13;8.68;;;;;;;;;;5089017;28;20044;-72
2022/03/28 12:36:41;;;;;;;21.75;9.73;;;;;;;;;;5088516;28;20035;-72
2022/03/28 12:39:10;;;;;;;15.18;8.93;;;;;;;;;;5077504;28;20042;-72
2022/03/28 12:41:40;;;;;;;19.42;9.85;;;;;;;;;;5081099;28;20374;-72
2022/03/28 12:44:12;;;;;;;13.63;8.85;;;;;;;;;;5083878;28;20063;-72
2022/03/28 12:46:39;;;;;;;19.92;9.55;;;;;;;;;;5083686;28;20111;-72
2022/03/28 12:49:11;;;;;;;13.90;8.27;;;;;;;;;;5085691;28;20115;-72
2022/03/28 12:51:38;;;;;;;14.18;8.80;;;;;;;;;;5082936;28;20020;-72
2022/03/28 12:54:08;;;;;;;15.07;9.68;;;;;;;;;;5086365;28;20382;-72
2022/03/28 12:56:44;;;;;;;13.35;9.30;;;;;;;;;;5086306;28;20545;-72
2022/03/28 12:59:10;;;;;;;14.32;9.07;;;;;;;;;;5082038;28;20523;-72
2022/03/28 13:01:36;;;;;;;16.58;9.50;;;;;;;;;;5085619;28;20055;-72
2022/03/28 13:04:14;;;;;;;15.57;9.02;;;;;;;;;;5081201;28;20048;-72
2022/03/28 13:06:44;;;;;;;19.05;10.35;;;;;;;;;;5084955;28;20043;-72
2022/03/28 13:09:11;;;;;;;16.13;10.27;;;;;;;;;;5084689;28;20036;-72
2022/03/28 13:11:37;;;;;;;16.95;10.60;;;;;;;;;;5087067;28;20103;-72
2022/03/28 13:14:05;;;;;;;18.95;10.00;;;;;;;;;;5088028;28;20051;-73
2022/03/28 13:16:31;;;;;;;17.40;10.45;;;;;;;;;;5078731;28;20032;-72
2022/03/28 13:18:57;;;;;;;16.70;9.35;;;;;;;;;;5086230;28;20516;-73
2022/03/28 13:21:44;;;;;;;15.25;9.32;;;;;;;;;;5085791;28;20791;-72
2022/03/28 13:24:13;;;;;;;17.23;10.27;;;;;;;;;;5085655;28;20052;-72
2022/03/28 13:26:47;;;;;;;17.77;9.48;;;;;;;;;;5082177;28;20039;-73
2022/03/28 13:29:21;;;;;;;14.63;9.00;;;;;;;;;;5082635;28;20039;-72
2022/03/28 13:31:47;;;;;;;16.20;8.38;;;;;;;;;;5081852;28;20028;-72
2022/03/28 13:34:13;;;;;;;15.75;9.32;;;;;;;;;;5085333;28;20627;-72
2022/03/28 13:36:40;;;;;;;17.27;10.38;;;;;;;;;;5081668;28;20059;-72
2022/03/28 13:39:06;;;;;;;14.85;9.43;;;;;;;;;;5086242;28;20036;-72
2022/03/28 13:41:32;;;;;;;15.65;9.55;;;;;;;;;;5083686;28;20029;-72
2022/03/28 13:43:58;;;;;;;14.93;10.02;;;;;;;;;;5083510;28;20039;-72
2022/03/28 13:46:24;;;;;;;22.27;11.00;;;;;;;;;;5082540;28;20632;-72
2022/03/28 13:48:52;;;;;;;18.60;10.73;;;;;;;;;;5084314;28;20028;-72
2022/03/28 13:51:18;;;;;;;20.58;9.68;;;;;;;;;;5084383;28;20184;-72
2022/03/28 13:53:44;;;;;;;23.75;10.88;;;;;;;;;;5086423;28;20040;-72
2022/03/28 13:56:10;;;;;;;17.73;10.50;;;;;;;;;;5082902;28;20027;-72
2022/03/28 13:58:36;;;;;;;16.33;9.40;;;;;;;;;;5082160;28;20036;-72
2022/03/28 14:01:04;;;;;;;18.20;10.80;;;;;;;;;;5079100;28;20028;-72
2022/03/28 14:03:30;;;;;;;15.95;9.95;;;;;;;;;;5083617;28;20072;-72
2022/03/28 14:05:56;;;;;;;20.90;10.75;;;;;;;;;;5080624;28;20676;-72
2022/03/28 14:08:22;;;;;;;16.90;10.50;;;;;;;;;;5077984;28;20082;-72
2022/03/28 14:10:49;;;;;;;17.35;10.50;;;;;;;;;;5080369;28;20017;-72
2022/03/28 14:13:18;;;;;;;20.88;10.88;;;;;;;;;;5087985;28;20107;-72
2022/03/28 14:15:45;;;;;;;20.17;10.85;;;;;;;;;;5080391;28;20043;-72
2022/03/28 14:18:11;;;;;;;19.42;10.95;;;;;;;;;;5081132;28;20032;-72
2022/03/28 14:20:37;;;;;;;20.00;10.07;;;;;;;;;;5078758;28;20774;-72
2022/03/28 14:23:05;;;;;;;20.00;10.70;;;;;;;;;;5083518;28;20056;-72
2022/03/28 14:25:31;;;;;;;15.55;10.77;;;;;;;;;;5078031;28;20020;-72
2022/03/28 14:27:57;;;;;;;16.52;10.10;;;;;;;;;;5080088;28;20043;-72
2022/03/28 14:30:24;;;;;;;17.38;10.88;;;;;;;;;;5081583;28;20542;-71
2022/03/28 14:32:50;;;;;;;18.13;10.57;;;;;;;;;;5079551;28;20467;-71
2022/03/28 14:35:16;;;;;;;15.60;9.68;;;;;;;;;;5081854;28;20489;-72
2022/03/28 14:37:42;;;;;;;14.15;9.88;;;;;;;;;;5079700;28;20036;-72